sensor_id;sensor_type;location;lat;lon;timestamp;P1;durP1;ratioP1;P2;durP2;ratioP2
28427;SDS011;15662;49.128;8.520;2024-03-17T00:01:03;3.25;;;2.95;;
28427;SDS011;15662;49.128;8.520;2024-03-17T00:03:30;2.92;;;2.65;;
28427;SDS011;15662;49.128;8.520;2024-03-17T00:05:57;3.38;;;2.38;;
28427;SDS011;15662;49.128;8.520;2024-03-17T00:08:25;4.05;;;2.40;;
28427;SDS011;15662;49.128;8.520;2024-03-17T00:10:53;2.55;;;2.35;;
28427;SDS011;15662;49.128;8.520;2024-03-17T00:13:21;4.13;;;2.22;;
28427;SDS011;15662;49.128;8.520;2024-03-17T00:15:48;2.08;;;1.98;;
28427;SDS011;15662;49.128;8.520;2024-03-17T00:18:15;2.75;;;1.63;;
28427;SDS011;15662;49.128;8.520;2024-03-17T00:20:42;2.50;;;1.80;;
28427;SDS011;15662;49.128;8.520;2024-03-17T00:23:08;4.75;;;2.88;;
28427;SDS011;15662;49.128;8.520;2024-03-17T00:25:37;6.03;;;3.05;;
28427;SDS011;15662;49.128;8.520;2024-03-17T00:28:05;4.80;;;3.38;;
28427;SDS011;15662;49.128;8.520;2024-03-17T00:30:31;6.05;;;3.53;;
28427;SDS011;15662;49.128;8.520;2024-03-17T00:32:57;7.57;;;3.42;;
28427;SDS011;15662;49.128;8.520;2024-03-17T00:35:25;5.13;;;3.50;;
28427;SDS011;15662;49.128;8.520;2024-03-17T00:37:51;3.63;;;3.20;;
28427;SDS011;15662;49.128;8.520;2024-03-17T00:40:18;6.32;;;3.00;;
28427;SDS011;15662;49.128;8.520;2024-03-17T00:42:45;5.25;;;3.10;;
28427;SDS011;15662;49.128;8.520;2024-03-17T00:45:12;3.85;;;3.40;;
28427;SDS011;15662;49.128;8.520;2024-03-17T00:47:38;5.25;;;3.78;;
28427;SDS011;15662;49.128;8.520;2024-03-17T00:50:05;8.13;;;5.20;;
28427;SDS011;15662;49.128;8.520;2024-03-17T00:52:36;8.40;;;5.50;;
28427;SDS011;15662;49.128;8.520;2024-03-17T00:55:03;7.78;;;5.22;;
28427;SDS011;15662;49.128;8.520;2024-03-17T00:57:29;6.20;;;4.45;;
28427;SDS011;15662;49.128;8.520;2024-03-17T00:59:55;5.50;;;4.07;;
28427;SDS011;15662;49.128;8.520;2024-03-17T01:02:22;5.00;;;3.72;;
28427;SDS011;15662;49.128;8.520;2024-03-17T01:04:48;4.65;;;4.10;;
28427;SDS011;15662;49.128;8.520;2024-03-17T01:07:14;5.55;;;3.80;;
28427;SDS011;15662;49.128;8.520;2024-03-17T01:09:40;6.53;;;4.25;;
28427;SDS011;15662;49.128;8.520;2024-03-17T01:12:07;5.40;;;3.78;;
28427;SDS011;15662;49.128;8.520;2024-03-17T01:14:33;5.40;;;4.32;;
28427;SDS011;15662;49.128;8.520;2024-03-17T01:16:59;4.35;;;3.60;;
28427;SDS011;15662;49.128;8.520;2024-03-17T01:19:27;3.50;;;3.20;;
28427;SDS011;15662;49.128;8.520;2024-03-17T01:21:53;4.03;;;3.45;;
28427;SDS011;15662;49.128;8.520;2024-03-17T01:24:19;2.67;;;2.47;;
28427;SDS011;15662;49.128;8.520;2024-03-17T01:26:46;3.00;;;2.70;;
28427;SDS011;15662;49.128;8.520;2024-03-17T01:29:12;2.83;;;2.58;;
28427;SDS011;15662;49.128;8.520;2024-03-17T01:31:38;4.50;;;2.45;;
28427;SDS011;15662;49.128;8.520;2024-03-17T01:34:05;2.10;;;2.00;;
28427;SDS011;15662;49.128;8.520;2024-03-17T01:36:31;4.25;;;3.00;;
28427;SDS011;15662;49.128;8.520;2024-03-17T01:38:58;2.80;;;2.45;;
28427;SDS011;15662;49.128;8.520;2024-03-17T01:41:25;4.60;;;2.50;;
28427;SDS011;15662;49.128;8.520;2024-03-17T01:43:51;2.90;;;2.35;;
28427;SDS011;15662;49.128;8.520;2024-03-17T01:46:17;7.22;;;3.80;;
28427;SDS011;15662;49.128;8.520;2024-03-17T01:48:44;6.80;;;3.83;;
28427;SDS011;15662;49.128;8.520;2024-03-17T01:51:11;13.95;;;4.90;;
28427;SDS011;15662;49.128;8.520;2024-03-17T01:53:40;9.27;;;4.35;;
28427;SDS011;15662;49.128;8.520;2024-03-17T01:56:08;8.77;;;3.97;;
28427;SDS011;15662;49.128;8.520;2024-03-17T01:58:37;10.50;;;4.45;;
28427;SDS011;15662;49.128;8.520;2024-03-17T02:01:03;7.57;;;3.60;;
28427;SDS011;15662;49.128;8.520;2024-03-17T02:03:30;3.53;;;3.22;;
28427;SDS011;15662;49.128;8.520;2024-03-17T02:05:57;5.03;;;3.20;;
28427;SDS011;15662;49.128;8.520;2024-03-17T02:08:25;2.75;;;2.50;;
28427;SDS011;15662;49.128;8.520;2024-03-17T02:10:55;2.65;;;2.45;;
28427;SDS011;15662;49.128;8.520;2024-03-17T02:13:21;2.95;;;2.45;;
28427;SDS011;15662;49.128;8.520;2024-03-17T02:15:48;2.78;;;2.58;;
28427;SDS011;15662;49.128;8.520;2024-03-17T02:18:14;3.88;;;2.80;;
28427;SDS011;15662;49.128;8.520;2024-03-17T02:20:40;2.45;;;2.33;;
28427;SDS011;15662;49.128;8.520;2024-03-17T02:23:25;2.70;;;2.50;;
28427;SDS011;15662;49.128;8.520;2024-03-17T02:25:52;5.35;;;3.60;;
28427;SDS011;15662;49.128;8.520;2024-03-17T02:28:19;3.60;;;3.05;;
28427;SDS011;15662;49.128;8.520;2024-03-17T02:30:45;3.10;;;2.80;;
28427;SDS011;15662;49.128;8.520;2024-03-17T02:33:12;4.38;;;2.80;;
28427;SDS011;15662;49.128;8.520;2024-03-17T02:35:38;3.25;;;2.85;;
28427;SDS011;15662;49.128;8.520;2024-03-17T02:38:04;6.82;;;3.08;;
28427;SDS011;15662;49.128;8.520;2024-03-17T02:40:33;4.20;;;3.35;;
28427;SDS011;15662;49.128;8.520;2024-03-17T02:42:59;3.60;;;3.15;;
28427;SDS011;15662;49.128;8.520;2024-03-17T02:45:25;4.32;;;3.10;;
28427;SDS011;15662;49.128;8.520;2024-03-17T02:47:52;10.18;;;4.95;;
28427;SDS011;15662;49.128;8.520;2024-03-17T02:50:18;7.82;;;4.60;;
28427;SDS011;15662;49.128;8.520;2024-03-17T02:52:44;10.48;;;4.28;;
28427;SDS011;15662;49.128;8.520;2024-03-17T02:55:10;5.00;;;3.67;;
28427;SDS011;15662;49.128;8.520;2024-03-17T02:57:36;7.60;;;4.35;;
28427;SDS011;15662;49.128;8.520;2024-03-17T03:00:03;4.88;;;4.40;;
28427;SDS011;15662;49.128;8.520;2024-03-17T03:02:30;4.22;;;3.83;;
28427;SDS011;15662;49.128;8.520;2024-03-17T03:04:56;4.68;;;4.28;;
28427;SDS011;15662;49.128;8.520;2024-03-17T03:07:22;5.22;;;4.28;;
28427;SDS011;15662;49.128;8.520;2024-03-17T03:09:49;5.35;;;4.03;;
28427;SDS011;15662;49.128;8.520;2024-03-17T03:12:16;4.57;;;3.75;;
28427;SDS011;15662;49.128;8.520;2024-03-17T03:14:43;4.30;;;3.85;;
28427;SDS011;15662;49.128;8.520;2024-03-17T03:17:09;5.03;;;4.13;;
28427;SDS011;15662;49.128;8.520;2024-03-17T03:19:35;6.05;;;3.72;;
28427;SDS011;15662;49.128;8.520;2024-03-17T03:22:01;4.03;;;3.63;;
28427;SDS011;15662;49.128;8.520;2024-03-17T03:24:27;4.07;;;3.70;;
28427;SDS011;15662;49.128;8.520;2024-03-17T03:26:54;5.47;;;3.85;;
28427;SDS011;15662;49.128;8.520;2024-03-17T03:29:20;7.10;;;3.95;;
28427;SDS011;15662;49.128;8.520;2024-03-17T03:31:46;5.65;;;3.78;;
28427;SDS011;15662;49.128;8.520;2024-03-17T03:34:13;4.32;;;3.92;;
28427;SDS011;15662;49.128;8.520;2024-03-17T03:36:39;4.78;;;3.75;;
28427;SDS011;15662;49.128;8.520;2024-03-17T03:39:07;3.72;;;3.38;;
28427;SDS011;15662;49.128;8.520;2024-03-17T03:41:37;3.65;;;3.35;;
28427;SDS011;15662;49.128;8.520;2024-03-17T03:44:04;3.67;;;3.38;;
28427;SDS011;15662;49.128;8.520;2024-03-17T03:46:30;4.93;;;3.25;;
28427;SDS011;15662;49.128;8.520;2024-03-17T03:48:56;3.63;;;3.33;;
28427;SDS011;15662;49.128;8.520;2024-03-17T03:51:23;5.13;;;3.92;;
28427;SDS011;15662;49.128;8.520;2024-03-17T03:53:50;7.40;;;3.67;;
28427;SDS011;15662;49.128;8.520;2024-03-17T03:56:16;3.63;;;3.33;;
28427;SDS011;15662;49.128;8.520;2024-03-17T03:58:43;3.70;;;3.40;;
28427;SDS011;15662;49.128;8.520;2024-03-17T04:01:11;3.88;;;3.47;;
28427;SDS011;15662;49.128;8.520;2024-03-17T04:03:37;5.72;;;3.95;;
28427;SDS011;15662;49.128;8.520;2024-03-17T04:06:08;5.55;;;3.30;;
28427;SDS011;15662;49.128;8.520;2024-03-17T04:08:36;5.05;;;3.63;;
28427;SDS011;15662;49.128;8.520;2024-03-17T04:11:05;4.57;;;3.50;;
28427;SDS011;15662;49.128;8.520;2024-03-17T04:13:33;4.32;;;3.92;;
28427;SDS011;15662;49.128;8.520;2024-03-17T04:16:00;4.22;;;3.83;;
28427;SDS011;15662;49.128;8.520;2024-03-17T04:18:31;7.47;;;4.88;;
28427;SDS011;15662;49.128;8.520;2024-03-17T04:21:03;5.95;;;4.10;;
28427;SDS011;15662;49.128;8.520;2024-03-17T04:23:32;5.28;;;4.10;;
28427;SDS011;15662;49.128;8.520;2024-03-17T04:25:59;4.30;;;3.75;;
28427;SDS011;15662;49.128;8.520;2024-03-17T04:28:27;4.63;;;4.05;;
28427;SDS011;15662;49.128;8.520;2024-03-17T04:30:53;4.70;;;4.20;;
28427;SDS011;15662;49.128;8.520;2024-03-17T04:33:34;4.20;;;3.80;;
28427;SDS011;15662;49.128;8.520;2024-03-17T04:36:01;5.20;;;3.88;;
28427;SDS011;15662;49.128;8.520;2024-03-17T04:38:28;6.78;;;4.18;;
28427;SDS011;15662;49.128;8.520;2024-03-17T04:40:54;7.18;;;4.22;;
28427;SDS011;15662;49.128;8.520;2024-03-17T04:43:30;6.30;;;4.60;;
28427;SDS011;15662;49.128;8.520;2024-03-17T04:46:01;4.45;;;3.95;;
28427;SDS011;15662;49.128;8.520;2024-03-17T04:48:30;4.55;;;4.03;;
28427;SDS011;15662;49.128;8.520;2024-03-17T04:50:57;5.15;;;4.18;;
28427;SDS011;15662;49.128;8.520;2024-03-17T04:53:25;5.53;;;4.50;;
28427;SDS011;15662;49.128;8.520;2024-03-17T04:56:02;4.30;;;3.90;;
28427;SDS011;15662;49.128;8.520;2024-03-17T04:58:32;3.97;;;3.60;;
28427;SDS011;15662;49.128;8.520;2024-03-17T05:01:07;5.47;;;4.15;;
28427;SDS011;15662;49.128;8.520;2024-03-17T05:03:34;4.30;;;3.90;;
28427;SDS011;15662;49.128;8.520;2024-03-17T05:06:02;4.95;;;3.92;;
28427;SDS011;15662;49.128;8.520;2024-03-17T05:08:29;4.63;;;4.03;;
28427;SDS011;15662;49.128;8.520;2024-03-17T05:11:01;6.05;;;4.55;;
28427;SDS011;15662;49.128;8.520;2024-03-17T05:13:33;7.43;;;4.57;;
28427;SDS011;15662;49.128;8.520;2024-03-17T05:16:04;8.35;;;5.22;;
28427;SDS011;15662;49.128;8.520;2024-03-17T05:18:30;13.30;;;5.40;;
28427;SDS011;15662;49.128;8.520;2024-03-17T05:21:01;6.97;;;4.68;;
28427;SDS011;15662;49.128;8.520;2024-03-17T05:23:30;5.32;;;4.30;;
28427;SDS011;15662;49.128;8.520;2024-03-17T05:25:59;5.15;;;4.32;;
28427;SDS011;15662;49.128;8.520;2024-03-17T05:28:26;5.03;;;4.40;;
28427;SDS011;15662;49.128;8.520;2024-03-17T05:30:54;4.25;;;3.80;;
28427;SDS011;15662;49.128;8.520;2024-03-17T05:33:22;4.95;;;3.95;;
28427;SDS011;15662;49.128;8.520;2024-03-17T05:35:54;5.32;;;4.10;;
28427;SDS011;15662;49.128;8.520;2024-03-17T05:38:25;4.35;;;3.95;;
28427;SDS011;15662;49.128;8.520;2024-03-17T05:43:23;4.63;;;3.92;;
28427;SDS011;15662;49.128;8.520;2024-03-17T05:46:08;5.07;;;3.92;;
28427;SDS011;15662;49.128;8.520;2024-03-17T05:48:39;4.80;;;3.70;;
28427;SDS011;15662;49.128;8.520;2024-03-17T05:51:06;4.28;;;3.88;;
28427;SDS011;15662;49.128;8.520;2024-03-17T05:53:38;4.43;;;3.78;;
28427;SDS011;15662;49.128;8.520;2024-03-17T05:56:09;4.28;;;3.90;;
28427;SDS011;15662;49.128;8.520;2024-03-17T06:01:07;4.47;;;4.07;;
28427;SDS011;15662;49.128;8.520;2024-03-17T06:03:34;4.72;;;4.03;;
28427;SDS011;15662;49.128;8.520;2024-03-17T06:06:01;5.75;;;4.28;;
28427;SDS011;15662;49.128;8.520;2024-03-17T06:08:29;5.50;;;4.20;;
28427;SDS011;15662;49.128;8.520;2024-03-17T06:10:55;6.85;;;4.45;;
28427;SDS011;15662;49.128;8.520;2024-03-17T06:13:26;4.53;;;3.83;;
28427;SDS011;15662;49.128;8.520;2024-03-17T06:15:53;4.95;;;4.30;;
28427;SDS011;15662;49.128;8.520;2024-03-17T06:18:20;5.97;;;4.47;;
28427;SDS011;15662;49.128;8.520;2024-03-17T06:20:47;4.85;;;4.45;;
28427;SDS011;15662;49.128;8.520;2024-03-17T06:23:14;4.43;;;4.03;;
28427;SDS011;15662;49.128;8.520;2024-03-17T06:25:44;4.60;;;4.20;;
28427;SDS011;15662;49.128;8.520;2024-03-17T06:28:12;5.45;;;4.85;;
28427;SDS011;15662;49.128;8.520;2024-03-17T06:30:41;5.00;;;4.50;;
28427;SDS011;15662;49.128;8.520;2024-03-17T06:33:13;5.35;;;4.25;;
28427;SDS011;15662;49.128;8.520;2024-03-17T06:35:44;6.17;;;4.53;;
28427;SDS011;15662;49.128;8.520;2024-03-17T06:38:12;5.13;;;4.60;;
28427;SDS011;15662;49.128;8.520;2024-03-17T06:40:39;7.82;;;5.20;;
28427;SDS011;15662;49.128;8.520;2024-03-17T06:43:05;6.20;;;4.85;;
28427;SDS011;15662;49.128;8.520;2024-03-17T06:45:32;6.72;;;5.30;;
28427;SDS011;15662;49.128;8.520;2024-03-17T06:47:58;6.60;;;5.60;;
28427;SDS011;15662;49.128;8.520;2024-03-17T06:50:24;6.30;;;5.68;;
28427;SDS011;15662;49.128;8.520;2024-03-17T06:52:50;6.47;;;5.10;;
28427;SDS011;15662;49.128;8.520;2024-03-17T06:55:19;7.90;;;5.55;;
28427;SDS011;15662;49.128;8.520;2024-03-17T06:57:50;6.15;;;5.55;;
28427;SDS011;15662;49.128;8.520;2024-03-17T07:00:16;6.07;;;5.47;;
28427;SDS011;15662;49.128;8.520;2024-03-17T07:02:43;7.53;;;5.72;;
28427;SDS011;15662;49.128;8.520;2024-03-17T07:05:13;6.57;;;5.88;;
28427;SDS011;15662;49.128;8.520;2024-03-17T07:07:40;7.55;;;6.10;;
28427;SDS011;15662;49.128;8.520;2024-03-17T07:10:10;7.97;;;5.85;;
28427;SDS011;15662;49.128;8.520;2024-03-17T07:12:41;7.32;;;6.03;;
28427;SDS011;15662;49.128;8.520;2024-03-17T07:15:08;7.22;;;6.53;;
28427;SDS011;15662;49.128;8.520;2024-03-17T07:17:35;8.63;;;6.40;;
28427;SDS011;15662;49.128;8.520;2024-03-17T07:20:01;6.53;;;5.85;;
28427;SDS011;15662;49.128;8.520;2024-03-17T07:22:29;7.40;;;6.10;;
28427;SDS011;15662;49.128;8.520;2024-03-17T07:24:55;7.55;;;6.47;;
28427;SDS011;15662;49.128;8.520;2024-03-17T07:27:26;7.67;;;6.30;;
28427;SDS011;15662;49.128;8.520;2024-03-17T07:29:55;7.25;;;6.18;;
28427;SDS011;15662;49.128;8.520;2024-03-17T07:32:21;7.38;;;6.03;;
28427;SDS011;15662;49.128;8.520;2024-03-17T07:34:50;6.88;;;6.15;;
28427;SDS011;15662;49.128;8.520;2024-03-17T07:37:17;9.95;;;6.68;;
28427;SDS011;15662;49.128;8.520;2024-03-17T07:39:43;8.43;;;6.30;;
28427;SDS011;15662;49.128;8.520;2024-03-17T07:42:09;6.95;;;6.15;;
28427;SDS011;15662;49.128;8.520;2024-03-17T07:44:37;6.70;;;5.85;;
28427;SDS011;15662;49.128;8.520;2024-03-17T07:47:03;7.88;;;6.57;;
28427;SDS011;15662;49.128;8.520;2024-03-17T07:49:30;6.60;;;5.90;;
28427;SDS011;15662;49.128;8.520;2024-03-17T07:51:57;7.70;;;6.40;;
28427;SDS011;15662;49.128;8.520;2024-03-17T07:54:24;7.25;;;6.22;;
28427;SDS011;15662;49.128;8.520;2024-03-17T07:56:51;7.43;;;6.63;;
28427;SDS011;15662;49.128;8.520;2024-03-17T07:59:20;7.07;;;6.18;;
28427;SDS011;15662;49.128;8.520;2024-03-17T08:01:46;6.65;;;6.03;;
28427;SDS011;15662;49.128;8.520;2024-03-17T08:04:12;7.50;;;5.72;;
28427;SDS011;15662;49.128;8.520;2024-03-17T08:06:39;7.93;;;6.15;;
28427;SDS011;15662;49.128;8.520;2024-03-17T08:09:08;7.05;;;6.35;;
28427;SDS011;15662;49.128;8.520;2024-03-17T08:11:35;7.82;;;6.75;;
28427;SDS011;15662;49.128;8.520;2024-03-17T08:14:01;7.22;;;6.32;;
28427;SDS011;15662;49.128;8.520;2024-03-17T08:16:28;8.32;;;6.80;;
28427;SDS011;15662;49.128;8.520;2024-03-17T08:18:55;8.20;;;6.93;;
28427;SDS011;15662;49.128;8.520;2024-03-17T08:21:22;8.68;;;7.78;;
28427;SDS011;15662;49.128;8.520;2024-03-17T08:23:48;9.18;;;7.22;;
28427;SDS011;15662;49.128;8.520;2024-03-17T08:26:14;7.55;;;6.75;;
28427;SDS011;15662;49.128;8.520;2024-03-17T08:28:41;10.18;;;7.55;;
28427;SDS011;15662;49.128;8.520;2024-03-17T08:31:07;7.30;;;6.55;;
28427;SDS011;15662;49.128;8.520;2024-03-17T08:33:33;7.43;;;6.70;;
28427;SDS011;15662;49.128;8.520;2024-03-17T08:38:31;8.32;;;7.05;;
28427;SDS011;15662;49.128;8.520;2024-03-17T08:41:02;7.30;;;6.40;;
28427;SDS011;15662;49.128;8.520;2024-03-17T08:43:30;7.35;;;6.57;;
28427;SDS011;15662;49.128;8.520;2024-03-17T08:45:58;8.13;;;7.15;;
28427;SDS011;15662;49.128;8.520;2024-03-17T08:48:26;7.40;;;6.28;;
28427;SDS011;15662;49.128;8.520;2024-03-17T08:50:56;7.43;;;6.43;;
28427;SDS011;15662;49.128;8.520;2024-03-17T08:53:24;7.78;;;6.60;;
28427;SDS011;15662;49.128;8.520;2024-03-17T08:55:52;6.30;;;5.70;;
28427;SDS011;15662;49.128;8.520;2024-03-17T08:58:18;6.70;;;6.00;;
28427;SDS011;15662;49.128;8.520;2024-03-17T09:00:46;7.55;;;6.85;;
28427;SDS011;15662;49.128;8.520;2024-03-17T09:03:13;7.80;;;6.82;;
28427;SDS011;15662;49.128;8.520;2024-03-17T09:05:40;9.88;;;6.97;;
28427;SDS011;15662;49.128;8.520;2024-03-17T09:08:16;7.60;;;6.85;;
28427;SDS011;15662;49.128;8.520;2024-03-17T09:10:46;8.13;;;6.53;;
28427;SDS011;15662;49.128;8.520;2024-03-17T09:13:15;7.75;;;6.95;;
28427;SDS011;15662;49.128;8.520;2024-03-17T09:15:53;8.80;;;7.00;;
28427;SDS011;15662;49.128;8.520;2024-03-17T09:18:33;7.65;;;6.85;;
28427;SDS011;15662;49.128;8.520;2024-03-17T09:23:29;8.23;;;7.28;;
28427;SDS011;15662;49.128;8.520;2024-03-17T09:26:00;8.65;;;7.75;;
28427;SDS011;15662;49.128;8.520;2024-03-17T09:28:31;8.15;;;7.35;;
28427;SDS011;15662;49.128;8.520;2024-03-17T09:30:59;9.23;;;7.93;;
28427;SDS011;15662;49.128;8.520;2024-03-17T09:33:26;9.02;;;7.97;;
28427;SDS011;15662;49.128;8.520;2024-03-17T09:35:58;9.10;;;8.02;;
28427;SDS011;15662;49.128;8.520;2024-03-17T09:38:31;9.70;;;8.70;;
28427;SDS011;15662;49.128;8.520;2024-03-17T09:40:59;8.88;;;7.93;;
28427;SDS011;15662;49.128;8.520;2024-03-17T09:43:29;9.63;;;8.48;;
28427;SDS011;15662;49.128;8.520;2024-03-17T09:48:31;9.05;;;7.75;;
28427;SDS011;15662;49.128;8.520;2024-03-17T09:51:01;8.60;;;7.70;;
28427;SDS011;15662;49.128;8.520;2024-03-17T09:53:32;6.82;;;6.18;;
28427;SDS011;15662;49.128;8.520;2024-03-17T09:58:42;8.55;;;7.63;;
28427;SDS011;15662;49.128;8.520;2024-03-17T10:01:08;8.55;;;7.65;;
28427;SDS011;15662;49.128;8.520;2024-03-17T10:03:47;9.70;;;8.02;;
28427;SDS011;15662;49.128;8.520;2024-03-17T10:06:17;8.88;;;7.95;;
28427;SDS011;15662;49.128;8.520;2024-03-17T10:08:46;9.30;;;8.27;;
28427;SDS011;15662;49.128;8.520;2024-03-17T10:11:14;9.13;;;8.00;;
28427;SDS011;15662;49.128;8.520;2024-03-17T10:13:44;8.15;;;7.35;;
28427;SDS011;15662;49.128;8.520;2024-03-17T10:16:25;9.93;;;8.65;;
28427;SDS011;15662;49.128;8.520;2024-03-17T10:19:11;8.77;;;7.88;;
28427;SDS011;15662;49.128;8.520;2024-03-17T10:21:45;8.98;;;7.80;;
28427;SDS011;15662;49.128;8.520;2024-03-17T10:24:22;8.70;;;7.60;;
28427;SDS011;15662;49.128;8.520;2024-03-17T10:26:52;8.40;;;7.47;;
28427;SDS011;15662;49.128;8.520;2024-03-17T10:34:39;9.60;;;8.13;;
28427;SDS011;15662;49.128;8.520;2024-03-17T10:37:09;8.02;;;7.22;;
28427;SDS011;15662;49.128;8.520;2024-03-17T10:39:41;7.85;;;7.05;;
28427;SDS011;15662;49.128;8.520;2024-03-17T10:42:12;7.72;;;7.03;;
28427;SDS011;15662;49.128;8.520;2024-03-17T10:44:43;15.38;;;8.35;;
28427;SDS011;15662;49.128;8.520;2024-03-17T10:47:21;9.45;;;7.22;;
28427;SDS011;15662;49.128;8.520;2024-03-17T10:49:51;6.88;;;6.05;;
28427;SDS011;15662;49.128;8.520;2024-03-17T10:52:20;6.93;;;6.32;;
28427;SDS011;15662;49.128;8.520;2024-03-17T10:54:49;6.90;;;5.97;;
28427;SDS011;15662;49.128;8.520;2024-03-17T11:00:05;10.27;;;7.90;;
28427;SDS011;15662;49.128;8.520;2024-03-17T11:02:35;6.80;;;6.18;;
28427;SDS011;15662;49.128;8.520;2024-03-17T11:05:02;6.50;;;5.90;;
28427;SDS011;15662;49.128;8.520;2024-03-17T11:07:57;5.90;;;5.38;;
28427;SDS011;15662;49.128;8.520;2024-03-17T11:10:28;5.72;;;5.22;;
28427;SDS011;15662;49.128;8.520;2024-03-17T11:12:57;5.07;;;4.38;;
28427;SDS011;15662;49.128;8.520;2024-03-17T11:18:41;5.22;;;4.70;;
28427;SDS011;15662;49.128;8.520;2024-03-17T11:20:58;5.25;;;4.20;;
28427;SDS011;15662;49.128;8.520;2024-03-17T11:23:41;4.57;;;4.18;;
28427;SDS011;15662;49.128;8.520;2024-03-17T11:26:08;4.30;;;3.90;;
28427;SDS011;15662;49.128;8.520;2024-03-17T11:33:59;3.13;;;2.80;;
28427;SDS011;15662;49.128;8.520;2024-03-17T11:38:55;3.95;;;2.70;;
28427;SDS011;15662;49.128;8.520;2024-03-17T11:41:47;3.40;;;2.88;;
28427;SDS011;15662;49.128;8.520;2024-03-17T11:46:54;3.45;;;3.15;;
28427;SDS011;15662;49.128;8.520;2024-03-17T11:49:29;3.22;;;2.83;;
28427;SDS011;15662;49.128;8.520;2024-03-17T11:51:58;3.80;;;3.45;;
28427;SDS011;15662;49.128;8.520;2024-03-17T11:54:29;3.75;;;3.30;;
28427;SDS011;15662;49.128;8.520;2024-03-17T11:57:02;3.78;;;3.40;;
28427;SDS011;15662;49.128;8.520;2024-03-17T11:59:37;5.00;;;3.67;;
28427;SDS011;15662;49.128;8.520;2024-03-17T12:04:53;7.82;;;4.50;;
28427;SDS011;15662;49.128;8.520;2024-03-17T12:07:22;4.00;;;3.60;;
28427;SDS011;15662;49.128;8.520;2024-03-17T12:09:49;3.25;;;2.88;;
28427;SDS011;15662;49.128;8.520;2024-03-17T12:12:20;3.40;;;3.13;;
28427;SDS011;15662;49.128;8.520;2024-03-17T12:14:50;3.20;;;3.00;;
28427;SDS011;15662;49.128;8.520;2024-03-17T12:17:20;3.20;;;2.90;;
28427;SDS011;15662;49.128;8.520;2024-03-17T12:19:49;3.25;;;2.95;;
28427;SDS011;15662;49.128;8.520;2024-03-17T12:22:22;3.63;;;3.30;;
28427;SDS011;15662;49.128;8.520;2024-03-17T12:24:55;2.92;;;2.65;;
28427;SDS011;15662;49.128;8.520;2024-03-17T12:27:25;3.40;;;3.05;;
28427;SDS011;15662;49.128;8.520;2024-03-17T12:29:55;3.20;;;2.70;;
28427;SDS011;15662;49.128;8.520;2024-03-17T12:32:22;4.38;;;3.00;;
28427;SDS011;15662;49.128;8.520;2024-03-17T12:34:51;4.55;;;3.35;;
28427;SDS011;15662;49.128;8.520;2024-03-17T12:37:25;3.88;;;2.83;;
28427;SDS011;15662;49.128;8.520;2024-03-17T12:40:02;3.35;;;2.85;;
28427;SDS011;15662;49.128;8.520;2024-03-17T12:42:29;3.05;;;2.85;;
28427;SDS011;15662;49.128;8.520;2024-03-17T12:47:27;2.60;;;2.40;;
28427;SDS011;15662;49.128;8.520;2024-03-17T12:49:56;2.83;;;2.55;;
28427;SDS011;15662;49.128;8.520;2024-03-17T12:52:31;3.10;;;2.88;;
28427;SDS011;15662;49.128;8.520;2024-03-17T13:00:47;2.47;;;2.35;;
28427;SDS011;15662;49.128;8.520;2024-03-17T13:06:06;2.83;;;2.63;;
28427;SDS011;15662;49.128;8.520;2024-03-17T13:08:35;2.95;;;2.65;;
28427;SDS011;15662;49.128;8.520;2024-03-17T13:11:02;2.80;;;2.50;;
28427;SDS011;15662;49.128;8.520;2024-03-17T13:13:34;2.55;;;2.35;;
28427;SDS011;15662;49.128;8.520;2024-03-17T13:16:01;2.75;;;2.55;;
28427;SDS011;15662;49.128;8.520;2024-03-17T13:18:27;3.00;;;2.70;;
28427;SDS011;15662;49.128;8.520;2024-03-17T13:20:53;3.20;;;2.90;;
28427;SDS011;15662;49.128;8.520;2024-03-17T13:23:20;2.90;;;2.70;;
28427;SDS011;15662;49.128;8.520;2024-03-17T13:25:50;2.75;;;2.55;;
28427;SDS011;15662;49.128;8.520;2024-03-17T13:28:16;2.70;;;2.50;;
28427;SDS011;15662;49.128;8.520;2024-03-17T13:30:42;2.47;;;2.10;;
28427;SDS011;15662;49.128;8.520;2024-03-17T13:33:09;2.58;;;2.40;;
28427;SDS011;15662;49.128;8.520;2024-03-17T13:35:38;2.67;;;2.47;;
28427;SDS011;15662;49.128;8.520;2024-03-17T13:38:05;3.97;;;2.47;;
28427;SDS011;15662;49.128;8.520;2024-03-17T13:40:34;3.00;;;2.67;;
28427;SDS011;15662;49.128;8.520;2024-03-17T13:43:03;3.80;;;2.25;;
28427;SDS011;15662;49.128;8.520;2024-03-17T13:45:31;2.97;;;2.65;;
28427;SDS011;15662;49.128;8.520;2024-03-17T13:48:07;2.58;;;2.35;;
28427;SDS011;15662;49.128;8.520;2024-03-17T13:50:36;3.10;;;2.80;;
28427;SDS011;15662;49.128;8.520;2024-03-17T13:53:09;4.13;;;3.10;;
28427;SDS011;15662;49.128;8.520;2024-03-17T13:55:36;2.85;;;2.50;;
28427;SDS011;15662;49.128;8.520;2024-03-17T13:58:03;2.58;;;2.38;;
28427;SDS011;15662;49.128;8.520;2024-03-17T14:00:30;2.40;;;2.30;;
28427;SDS011;15662;49.128;8.520;2024-03-17T14:02:57;2.60;;;2.40;;
28427;SDS011;15662;49.128;8.520;2024-03-17T14:05:24;3.35;;;2.60;;
28427;SDS011;15662;49.128;8.520;2024-03-17T14:07:51;2.67;;;2.47;;
28427;SDS011;15662;49.128;8.520;2024-03-17T14:10:23;3.45;;;2.72;;
28427;SDS011;15662;49.128;8.520;2024-03-17T14:12:50;2.63;;;2.20;;
28427;SDS011;15662;49.128;8.520;2024-03-17T14:15:17;2.90;;;2.20;;
28427;SDS011;15662;49.128;8.520;2024-03-17T14:17:44;2.60;;;2.33;;
28427;SDS011;15662;49.128;8.520;2024-03-17T14:20:12;2.33;;;2.15;;
28427;SDS011;15662;49.128;8.520;2024-03-17T14:22:40;3.83;;;2.45;;
28427;SDS011;15662;49.128;8.520;2024-03-17T14:25:08;5.30;;;2.60;;
28427;SDS011;15662;49.128;8.520;2024-03-17T14:27:45;2.60;;;2.20;;
28427;SDS011;15662;49.128;8.520;2024-03-17T14:30:15;2.30;;;2.10;;
28427;SDS011;15662;49.128;8.520;2024-03-17T14:32:44;2.35;;;2.08;;
28427;SDS011;15662;49.128;8.520;2024-03-17T14:35:17;2.05;;;1.75;;
28427;SDS011;15662;49.128;8.520;2024-03-17T14:37:46;2.03;;;1.80;;
28427;SDS011;15662;49.128;8.520;2024-03-17T14:40:17;2.25;;;1.80;;
28427;SDS011;15662;49.128;8.520;2024-03-17T14:42:53;3.05;;;1.65;;
28427;SDS011;15662;49.128;8.520;2024-03-17T14:45:23;2.17;;;2.08;;
28427;SDS011;15662;49.128;8.520;2024-03-17T14:47:49;4.53;;;2.05;;
28427;SDS011;15662;49.128;8.520;2024-03-17T14:50:17;2.03;;;1.70;;
28427;SDS011;15662;49.128;8.520;2024-03-17T14:52:44;1.75;;;1.63;;
28427;SDS011;15662;49.128;8.520;2024-03-17T14:55:11;1.90;;;1.42;;
28427;SDS011;15662;49.128;8.520;2024-03-17T14:57:38;1.63;;;1.52;;
28427;SDS011;15662;49.128;8.520;2024-03-17T15:00:08;1.92;;;1.50;;
28427;SDS011;15662;49.128;8.520;2024-03-17T15:02:44;1.50;;;1.40;;
28427;SDS011;15662;49.128;8.520;2024-03-17T15:05:13;2.33;;;1.77;;
28427;SDS011;15662;49.128;8.520;2024-03-17T15:07:40;1.67;;;1.27;;
28427;SDS011;15662;49.128;8.520;2024-03-17T15:10:07;2.58;;;1.00;;
28427;SDS011;15662;49.128;8.520;2024-03-17T15:12:33;1.15;;;0.88;;
28427;SDS011;15662;49.128;8.520;2024-03-17T15:14:59;1.40;;;1.30;;
28427;SDS011;15662;49.128;8.520;2024-03-17T15:17:26;1.90;;;1.70;;
28427;SDS011;15662;49.128;8.520;2024-03-17T15:19:53;1.15;;;1.05;;
28427;SDS011;15662;49.128;8.520;2024-03-17T15:22:20;2.55;;;1.38;;
28427;SDS011;15662;49.128;8.520;2024-03-17T15:24:47;1.35;;;1.15;;
28427;SDS011;15662;49.128;8.520;2024-03-17T15:27:14;1.00;;;1.00;;
28427;SDS011;15662;49.128;8.520;2024-03-17T15:29:40;0.90;;;0.90;;
28427;SDS011;15662;49.128;8.520;2024-03-17T15:32:06;1.27;;;0.90;;
28427;SDS011;15662;49.128;8.520;2024-03-17T15:34:33;0.73;;;0.70;;
28427;SDS011;15662;49.128;8.520;2024-03-17T15:37:05;1.10;;;0.80;;
28427;SDS011;15662;49.128;8.520;2024-03-17T15:39:31;1.20;;;1.05;;
28427;SDS011;15662;49.128;8.520;2024-03-17T15:41:58;1.20;;;0.85;;
28427;SDS011;15662;49.128;8.520;2024-03-17T15:44:24;2.03;;;1.20;;
28427;SDS011;15662;49.128;8.520;2024-03-17T15:46:50;1.48;;;0.80;;